Terminal Aerodrome Forecast
Issued by NWS Melbourne, FL

Home | Current Version | Previous Version | Text Only | Print | Product List | Glossary On
Versions: 1 2 3 4 5 6 7 8 9 10 11 12 13 14 15 16 17
145
FTUS42 KMLB 062329
TAFVRB
TAF
KVRB 062329Z 0700/0724 36009KT 6SM -RA BR SCT015 OVC040
      TEMPO 0700/0703 2SM +SHRA OVC015
     FM070300 33010KT P6SM VCSH SCT006 OVC010
      TEMPO 0703/0705 4SM -RA BR OVC006
     FM070800 31015G25KT P6SM OVC010
     FM071500 30022G32KT P6SM BKN020=

USA.gov is the U.S. government's official web portal to all federal, state and local government web resources and services.